sensor_id;sensor_type;location;lat;lon;timestamp;pressure;altitude;pressure_sealevel;temperature;humidity
8705;BME280;4389;41.932;25.904;2023-04-05T00:01:24;99831.34;;;7.09;100.00
8705;BME280;4389;41.932;25.904;2023-04-05T00:03:51;99834.44;;;7.14;100.00
8705;BME280;4389;41.932;25.904;2023-04-05T00:06:19;99833.34;;;7.17;100.00
8705;BME280;4389;41.932;25.904;2023-04-05T00:08:46;99828.38;;;7.23;100.00
8705;BME280;4389;41.932;25.904;2023-04-05T00:11:14;99832.09;;;7.21;100.00
8705;BME280;4389;41.932;25.904;2023-04-05T00:13:43;99825.34;;;7.28;100.00
8705;BME280;4389;41.932;25.904;2023-04-05T00:16:10;99831.41;;;7.19;100.00
8705;BME280;4389;41.932;25.904;2023-04-05T00:18:37;99823.84;;;7.05;100.00
8705;BME280;4389;41.932;25.904;2023-04-05T00:21:04;99832.19;;;7.10;100.00
8705;BME280;4389;41.932;25.904;2023-04-05T00:23:31;99841.06;;;7.09;100.00
8705;BME280;4389;41.932;25.904;2023-04-05T00:26:02;99838.38;;;6.99;100.00
8705;BME280;4389;41.932;25.904;2023-04-05T00:28:30;99842.41;;;7.03;100.00
8705;BME280;4389;41.932;25.904;2023-04-05T00:30:58;99844.03;;;6.95;100.00
8705;BME280;4389;41.932;25.904;2023-04-05T00:33:25;99844.06;;;6.84;100.00
8705;BME280;4389;41.932;25.904;2023-04-05T00:35:51;99839.53;;;6.86;100.00
8705;BME280;4389;41.932;25.904;2023-04-05T00:38:18;99848.91;;;6.79;100.00
8705;BME280;4389;41.932;25.904;2023-04-05T00:40:45;99848.91;;;6.79;100.00
8705;BME280;4389;41.932;25.904;2023-04-05T00:43:12;99847.19;;;6.78;100.00
8705;BME280;4389;41.932;25.904;2023-04-05T00:45:39;99853.94;;;6.71;100.00
8705;BME280;4389;41.932;25.904;2023-04-05T00:48:07;99845.31;;;6.80;100.00
8705;BME280;4389;41.932;25.904;2023-04-05T00:50:34;99860.00;;;6.82;100.00
8705;BME280;4389;41.932;25.904;2023-04-05T00:53:01;99865.19;;;6.73;100.00
8705;BME280;4389;41.932;25.904;2023-04-05T00:55:28;99860.16;;;6.70;100.00
8705;BME280;4389;41.932;25.904;2023-04-05T00:57:58;99860.34;;;6.78;100.00
8705;BME280;4389;41.932;25.904;2023-04-05T01:00:25;99857.13;;;6.74;100.00
8705;BME280;4389;41.932;25.904;2023-04-05T01:02:54;99863.50;;;6.72;100.00
8705;BME280;4389;41.932;25.904;2023-04-05T01:05:35;99862.28;;;6.76;100.00
8705;BME280;4389;41.932;25.904;2023-04-05T01:08:12;99866.00;;;6.73;100.00
8705;BME280;4389;41.932;25.904;2023-04-05T01:10:43;99863.75;;;6.69;100.00
8705;BME280;4389;41.932;25.904;2023-04-05T01:13:14;99874.72;;;6.74;100.00
8705;BME280;4389;41.932;25.904;2023-04-05T01:15:41;99864.00;;;6.66;100.00
8705;BME280;4389;41.932;25.904;2023-04-05T01:18:08;99870.44;;;6.73;100.00
8705;BME280;4389;41.932;25.904;2023-04-05T01:20:48;99875.22;;;6.68;100.00
8705;BME280;4389;41.932;25.904;2023-04-05T01:23:32;99862.09;;;6.68;100.00
8705;BME280;4389;41.932;25.904;2023-04-05T01:26:32;99860.34;;;6.57;100.00
8705;BME280;4389;41.932;25.904;2023-04-05T01:29:34;99866.44;;;6.58;100.00
8705;BME280;4389;41.932;25.904;2023-04-05T01:32:10;99866.09;;;6.51;100.00
8705;BME280;4389;41.932;25.904;2023-04-05T01:34:46;99867.16;;;6.49;100.00
8705;BME280;4389;41.932;25.904;2023-04-05T01:37:18;99872.69;;;6.46;100.00
8705;BME280;4389;41.932;25.904;2023-04-05T01:39:45;99874.25;;;6.48;100.00
8705;BME280;4389;41.932;25.904;2023-04-05T01:42:13;99876.28;;;6.45;100.00
8705;BME280;4389;41.932;25.904;2023-04-05T01:44:41;99876.50;;;6.42;100.00
8705;BME280;4389;41.932;25.904;2023-04-05T01:47:08;99881.53;;;6.45;100.00
8705;BME280;4389;41.932;25.904;2023-04-05T01:49:35;99874.63;;;6.44;100.00
8705;BME280;4389;41.932;25.904;2023-04-05T01:52:02;99878.56;;;6.38;100.00
8705;BME280;4389;41.932;25.904;2023-04-05T01:54:29;99875.34;;;6.35;100.00
8705;BME280;4389;41.932;25.904;2023-04-05T01:56:55;99883.09;;;6.36;100.00
8705;BME280;4389;41.932;25.904;2023-04-05T01:59:23;99876.97;;;6.47;100.00
8705;BME280;4389;41.932;25.904;2023-04-05T02:01:51;99883.69;;;6.40;100.00
8705;BME280;4389;41.932;25.904;2023-04-05T02:04:18;99885.25;;;6.42;100.00
8705;BME280;4389;41.932;25.904;2023-04-05T02:06:45;99891.84;;;6.37;100.00
8705;BME280;4389;41.932;25.904;2023-04-05T02:09:12;99889.22;;;6.37;100.00
8705;BME280;4389;41.932;25.904;2023-04-05T02:11:39;99894.84;;;6.32;99.70
8705;BME280;4389;41.932;25.904;2023-04-05T02:14:06;99912.97;;;6.35;99.75
8705;BME280;4389;41.932;25.904;2023-04-05T02:16:35;99908.56;;;6.36;98.94
8705;BME280;4389;41.932;25.904;2023-04-05T02:19:03;99901.59;;;6.46;98.68
8705;BME280;4389;41.932;25.904;2023-04-05T02:21:30;99902.56;;;6.45;98.82
8705;BME280;4389;41.932;25.904;2023-04-05T02:23:57;99910.81;;;6.29;98.50
8705;BME280;4389;41.932;25.904;2023-04-05T02:26:24;99917.75;;;6.30;98.08
8705;BME280;4389;41.932;25.904;2023-04-05T02:28:51;99913.34;;;6.31;98.14
8705;BME280;4389;41.932;25.904;2023-04-05T02:31:18;99918.72;;;6.29;98.36
8705;BME280;4389;41.932;25.904;2023-04-05T02:33:45;99920.03;;;6.24;97.86
8705;BME280;4389;41.932;25.904;2023-04-05T02:36:15;99918.13;;;6.26;99.03
8705;BME280;4389;41.932;25.904;2023-04-05T02:38:41;99918.72;;;6.29;98.50
8705;BME280;4389;41.932;25.904;2023-04-05T02:41:09;99920.84;;;6.24;98.54
8705;BME280;4389;41.932;25.904;2023-04-05T02:43:36;99920.03;;;6.24;98.39
8705;BME280;4389;41.932;25.904;2023-04-05T02:46:03;99917.63;;;6.21;98.37
8705;BME280;4389;41.932;25.904;2023-04-05T02:48:30;99921.72;;;6.25;97.60
8705;BME280;4389;41.932;25.904;2023-04-05T02:50:57;99931.94;;;6.28;98.21
8705;BME280;4389;41.932;25.904;2023-04-05T02:53:25;99928.88;;;6.23;97.31
8705;BME280;4389;41.932;25.904;2023-04-05T02:55:52;99933.88;;;6.26;97.78
8705;BME280;4389;41.932;25.904;2023-04-05T02:58:19;99939.84;;;6.28;98.06
8705;BME280;4389;41.932;25.904;2023-04-05T03:00:46;99935.31;;;6.30;98.18
8705;BME280;4389;41.932;25.904;2023-04-05T03:03:16;99941.38;;;6.30;97.87
8705;BME280;4389;41.932;25.904;2023-04-05T03:05:44;99947.97;;;6.36;97.23
8705;BME280;4389;41.932;25.904;2023-04-05T03:08:11;99947.22;;;6.34;97.97
8705;BME280;4389;41.932;25.904;2023-04-05T03:10:44;99942.66;;;6.47;98.32
8705;BME280;4389;41.932;25.904;2023-04-05T03:13:12;99951.03;;;6.52;97.48
8705;BME280;4389;41.932;25.904;2023-04-05T03:15:39;99951.03;;;6.52;96.70
8705;BME280;4389;41.932;25.904;2023-04-05T03:18:06;99952.09;;;6.49;96.89
8705;BME280;4389;41.932;25.904;2023-04-05T03:20:33;99958.91;;;6.41;96.72
8705;BME280;4389;41.932;25.904;2023-04-05T03:23:05;99955.31;;;6.42;97.12
8705;BME280;4389;41.932;25.904;2023-04-05T03:25:33;99957.00;;;6.43;96.89
8705;BME280;4389;41.932;25.904;2023-04-05T03:28:04;99957.25;;;6.40;95.71
8705;BME280;4389;41.932;25.904;2023-04-05T03:30:31;99962.22;;;6.54;96.63
8705;BME280;4389;41.932;25.904;2023-04-05T03:32:58;99966.06;;;6.50;96.19
8705;BME280;4389;41.932;25.904;2023-04-05T03:35:26;99960.56;;;6.53;94.84
8705;BME280;4389;41.932;25.904;2023-04-05T03:37:54;99962.75;;;6.37;93.73
8705;BME280;4389;41.932;25.904;2023-04-05T03:40:21;99964.66;;;6.35;94.10
8705;BME280;4389;41.932;25.904;2023-04-05T03:42:48;99964.56;;;6.25;93.86
8705;BME280;4389;41.932;25.904;2023-04-05T03:45:16;99976.16;;;6.23;93.91
8705;BME280;4389;41.932;25.904;2023-04-05T03:47:43;99970.31;;;6.19;95.34
8705;BME280;4389;41.932;25.904;2023-04-05T03:50:10;99972.78;;;6.21;94.60
8705;BME280;4389;41.932;25.904;2023-04-05T03:52:37;99981.16;;;6.26;94.28
8705;BME280;4389;41.932;25.904;2023-04-05T03:55:04;99979.50;;;6.25;94.91
8705;BME280;4389;41.932;25.904;2023-04-05T03:57:32;99983.78;;;6.26;95.08
8705;BME280;4389;41.932;25.904;2023-04-05T03:59:59;99984.41;;;6.18;94.69
8705;BME280;4389;41.932;25.904;2023-04-05T04:02:27;99987.25;;;6.15;94.35
8705;BME280;4389;41.932;25.904;2023-04-05T04:04:54;99990.72;;;6.16;95.64
8705;BME280;4389;41.932;25.904;2023-04-05T04:07:22;99993.22;;;6.17;94.57
8705;BME280;4389;41.932;25.904;2023-04-05T04:09:48;99993.81;;;6.21;94.97
8705;BME280;4389;41.932;25.904;2023-04-05T04:12:15;99998.34;;;6.19;94.60
8705;BME280;4389;41.932;25.904;2023-04-05T04:14:42;99997.38;;;6.20;93.51
8705;BME280;4389;41.932;25.904;2023-04-05T04:17:09;100004.19;;;6.33;93.73
8705;BME280;4389;41.932;25.904;2023-04-05T04:19:37;100005.97;;;6.44;93.92
8705;BME280;4389;41.932;25.904;2023-04-05T04:22:04;100001.91;;;6.51;93.06
8705;BME280;4389;41.932;25.904;2023-04-05T04:24:34;99998.75;;;6.68;93.56
8705;BME280;4389;41.932;25.904;2023-04-05T04:27:01;100006.56;;;6.90;93.93
8705;BME280;4389;41.932;25.904;2023-04-05T04:29:28;100012.31;;;6.95;93.07
8705;BME280;4389;41.932;25.904;2023-04-05T04:31:58;100009.28;;;6.99;93.05
8705;BME280;4389;41.932;25.904;2023-04-05T04:34:25;100013.72;;;6.99;92.86
8705;BME280;4389;41.932;25.904;2023-04-05T04:36:56;100023.06;;;6.92;92.52
8705;BME280;4389;41.932;25.904;2023-04-05T04:39:26;100012.59;;;6.70;92.88
8705;BME280;4389;41.932;25.904;2023-04-05T04:41:56;100011.91;;;6.68;92.34
8705;BME280;4389;41.932;25.904;2023-04-05T04:44:23;100007.59;;;6.67;92.36
8705;BME280;4389;41.932;25.904;2023-04-05T04:46:55;100015.00;;;6.62;92.04
8705;BME280;4389;41.932;25.904;2023-04-05T04:49:22;100019.78;;;6.57;92.43
8705;BME280;4389;41.932;25.904;2023-04-05T04:51:49;100032.81;;;6.69;91.92
8705;BME280;4389;41.932;25.904;2023-04-05T04:54:17;100024.94;;;6.58;90.34
8705;BME280;4389;41.932;25.904;2023-04-05T04:56:46;100041.19;;;6.52;91.20
8705;BME280;4389;41.932;25.904;2023-04-05T04:59:13;100037.00;;;6.72;91.65
8705;BME280;4389;41.932;25.904;2023-04-05T05:01:43;100033.63;;;6.70;90.97
8705;BME280;4389;41.932;25.904;2023-04-05T05:04:10;100036.03;;;6.73;89.63
8705;BME280;4389;41.932;25.904;2023-04-05T05:06:37;100035.16;;;6.83;89.41
8705;BME280;4389;41.932;25.904;2023-04-05T05:09:04;100042.22;;;6.83;89.13
8705;BME280;4389;41.932;25.904;2023-04-05T05:11:32;100038.13;;;6.90;89.66
8705;BME280;4389;41.932;25.904;2023-04-05T05:13:59;100037.31;;;6.78;89.06
8705;BME280;4389;41.932;25.904;2023-04-05T05:16:26;100038.16;;;6.79;88.51
8705;BME280;4389;41.932;25.904;2023-04-05T05:18:53;100044.59;;;6.86;89.70
8705;BME280;4389;41.932;25.904;2023-04-05T05:21:20;100041.47;;;6.92;89.57
8705;BME280;4389;41.932;25.904;2023-04-05T05:23:47;100052.72;;;6.94;90.30
8705;BME280;4389;41.932;25.904;2023-04-05T05:26:15;100050.50;;;7.10;90.11
8705;BME280;4389;41.932;25.904;2023-04-05T05:28:43;100049.94;;;7.27;89.44
8705;BME280;4389;41.932;25.904;2023-04-05T05:31:10;100051.97;;;7.34;88.63
8705;BME280;4389;41.932;25.904;2023-04-05T05:33:38;100061.13;;;7.40;87.86
8705;BME280;4389;41.932;25.904;2023-04-05T05:36:06;100057.53;;;7.41;87.96
8705;BME280;4389;41.932;25.904;2023-04-05T05:38:33;100052.81;;;7.76;87.49
8705;BME280;4389;41.932;25.904;2023-04-05T05:41:00;100064.31;;;7.54;85.65
8705;BME280;4389;41.932;25.904;2023-04-05T05:43:27;100066.75;;;7.67;86.86
8705;BME280;4389;41.932;25.904;2023-04-05T05:45:59;100061.31;;;7.59;85.63
8705;BME280;4389;41.932;25.904;2023-04-05T05:48:26;100064.59;;;7.72;85.81
8705;BME280;4389;41.932;25.904;2023-04-05T05:50:53;100072.03;;;7.46;84.73
8705;BME280;4389;41.932;25.904;2023-04-05T05:53:20;100056.81;;;7.50;85.30
8705;BME280;4389;41.932;25.904;2023-04-05T05:55:47;100057.19;;;7.66;85.59
8705;BME280;4389;41.932;25.904;2023-04-05T05:58:14;100059.94;;;7.64;84.09
8705;BME280;4389;41.932;25.904;2023-04-05T06:00:41;100065.34;;;7.63;84.22
8705;BME280;4389;41.932;25.904;2023-04-05T06:03:10;100060.84;;;7.95;84.68
8705;BME280;4389;41.932;25.904;2023-04-05T06:05:37;100063.03;;;8.10;83.25
8705;BME280;4389;41.932;25.904;2023-04-05T06:08:04;100065.59;;;8.21;82.29
8705;BME280;4389;41.932;25.904;2023-04-05T06:10:31;100077.16;;;8.30;82.73
8705;BME280;4389;41.932;25.904;2023-04-05T06:12:58;100076.50;;;8.17;81.80
8705;BME280;4389;41.932;25.904;2023-04-05T06:15:25;100085.38;;;8.16;82.50
8705;BME280;4389;41.932;25.904;2023-04-05T06:17:52;100084.63;;;8.04;82.95
8705;BME280;4389;41.932;25.904;2023-04-05T06:20:20;100086.97;;;8.07;82.35
8705;BME280;4389;41.932;25.904;2023-04-05T06:22:47;100088.25;;;8.13;81.92
8705;BME280;4389;41.932;25.904;2023-04-05T06:25:14;100081.06;;;8.15;82.52
8705;BME280;4389;41.932;25.904;2023-04-05T06:27:41;100081.06;;;8.15;82.96
8705;BME280;4389;41.932;25.904;2023-04-05T06:30:08;100089.81;;;8.36;83.60
8705;BME280;4389;41.932;25.904;2023-04-05T06:32:35;100087.69;;;8.60;83.81
8705;BME280;4389;41.932;25.904;2023-04-05T06:35:02;100096.22;;;8.43;82.78
8705;BME280;4389;41.932;25.904;2023-04-05T06:37:31;100094.28;;;8.45;82.25
8705;BME280;4389;41.932;25.904;2023-04-05T06:39:58;100106.44;;;8.36;82.12
8705;BME280;4389;41.932;25.904;2023-04-05T06:42:24;100102.03;;;8.37;82.38
8705;BME280;4389;41.932;25.904;2023-04-05T06:44:51;100111.47;;;8.39;81.69
8705;BME280;4389;41.932;25.904;2023-04-05T06:47:18;100115.09;;;8.48;81.89
8705;BME280;4389;41.932;25.904;2023-04-05T06:49:45;100109.06;;;8.57;81.70
8705;BME280;4389;41.932;25.904;2023-04-05T06:52:12;100115.28;;;8.86;82.25
8705;BME280;4389;41.932;25.904;2023-04-05T06:54:40;100121.31;;;9.06;79.55
8705;BME280;4389;41.932;25.904;2023-04-05T06:57:07;100124.44;;;8.91;80.27
8705;BME280;4389;41.932;25.904;2023-04-05T06:59:34;100118.91;;;9.03;80.11
8705;BME280;4389;41.932;25.904;2023-04-05T07:02:01;100124.03;;;8.95;78.49
8705;BME280;4389;41.932;25.904;2023-04-05T07:04:27;100118.31;;;8.90;78.53
8705;BME280;4389;41.932;25.904;2023-04-05T07:06:59;100130.97;;;8.96;78.11
8705;BME280;4389;41.932;25.904;2023-04-05T07:09:27;100140.34;;;9.19;78.56
8705;BME280;4389;41.932;25.904;2023-04-05T07:11:56;100139.31;;;9.50;78.16
8705;BME280;4389;41.932;25.904;2023-04-05T07:14:23;100136.75;;;9.20;76.84
8705;BME280;4389;41.932;25.904;2023-04-05T07:16:51;100141.25;;;9.39;77.17
8705;BME280;4389;41.932;25.904;2023-04-05T07:19:17;100147.66;;;9.84;76.82
8705;BME280;4389;41.932;25.904;2023-04-05T07:21:44;100140.69;;;9.92;74.61
8705;BME280;4389;41.932;25.904;2023-04-05T07:24:11;100130.56;;;10.07;74.06
8705;BME280;4389;41.932;25.904;2023-04-05T07:26:38;100140.31;;;10.06;72.31
8705;BME280;4389;41.932;25.904;2023-04-05T07:29:07;100149.06;;;9.78;71.76
8705;BME280;4389;41.932;25.904;2023-04-05T07:31:34;100147.38;;;10.25;72.39
8705;BME280;4389;41.932;25.904;2023-04-05T07:34:01;100142.44;;;10.39;71.24
8705;BME280;4389;41.932;25.904;2023-04-05T07:36:27;100152.03;;;10.40;70.52
8705;BME280;4389;41.932;25.904;2023-04-05T07:38:55;100148.84;;;10.83;69.59
8705;BME280;4389;41.932;25.904;2023-04-05T07:41:24;100150.66;;;11.63;66.96
8705;BME280;4389;41.932;25.904;2023-04-05T07:43:51;100154.50;;;12.04;64.82
8705;BME280;4389;41.932;25.904;2023-04-05T07:46:19;100151.13;;;11.76;65.14
8705;BME280;4389;41.932;25.904;2023-04-05T07:48:46;100152.25;;;12.09;62.78
8705;BME280;4389;41.932;25.904;2023-04-05T07:51:14;100150.59;;;12.33;63.79
8705;BME280;4389;41.932;25.904;2023-04-05T07:53:40;100162.53;;;11.77;64.43
8705;BME280;4389;41.932;25.904;2023-04-05T07:56:09;100162.25;;;12.15;63.87
8705;BME280;4389;41.932;25.904;2023-04-05T07:58:37;100171.88;;;11.63;62.83
8705;BME280;4389;41.932;25.904;2023-04-05T08:01:06;100176.78;;;11.58;65.37
8705;BME280;4389;41.932;25.904;2023-04-05T08:03:35;100169.97;;;12.08;62.65
8705;BME280;4389;41.932;25.904;2023-04-05T08:06:10;100172.78;;;12.75;60.86
8705;BME280;4389;41.932;25.904;2023-04-05T08:08:38;100169.22;;;12.92;60.40
8705;BME280;4389;41.932;25.904;2023-04-05T08:11:06;100175.47;;;13.09;58.61
8705;BME280;4389;41.932;25.904;2023-04-05T08:13:33;100173.66;;;13.59;58.26
8705;BME280;4389;41.932;25.904;2023-04-05T08:16:01;100177.19;;;13.83;56.26
8705;BME280;4389;41.932;25.904;2023-04-05T08:18:28;100174.50;;;13.18;57.41
8705;BME280;4389;41.932;25.904;2023-04-05T08:20:56;100175.28;;;13.44;56.01
8705;BME280;4389;41.932;25.904;2023-04-05T08:23:23;100175.47;;;13.09;56.90
8705;BME280;4389;41.932;25.904;2023-04-05T08:25:51;100172.84;;;12.91;56.58
8705;BME280;4389;41.932;25.904;2023-04-05T08:28:18;100171.81;;;12.84;57.46
8705;BME280;4389;41.932;25.904;2023-04-05T08:30:46;100170.16;;;12.83;58.10
8705;BME280;4389;41.932;25.904;2023-04-05T08:33:13;100174.44;;;13.02;58.00
8705;BME280;4389;41.932;25.904;2023-04-05T08:35:39;100180.44;;;13.53;56.91
8705;BME280;4389;41.932;25.904;2023-04-05T08:38:09;100176.19;;;13.76;56.65
8705;BME280;4389;41.932;25.904;2023-04-05T08:40:39;100180.78;;;13.58;56.04
8705;BME280;4389;41.932;25.904;2023-04-05T08:43:10;100183.44;;;12.83;57.71
8705;BME280;4389;41.932;25.904;2023-04-05T08:45:46;100184.84;;;12.95;57.18
8705;BME280;4389;41.932;25.904;2023-04-05T08:48:13;100179.41;;;12.79;57.16
8705;BME280;4389;41.932;25.904;2023-04-05T08:50:41;100189.00;;;12.72;58.06
8705;BME280;4389;41.932;25.904;2023-04-05T08:53:09;100181.72;;;13.00;56.78
8705;BME280;4389;41.932;25.904;2023-04-05T08:55:36;100191.53;;;13.41;55.27
8705;BME280;4389;41.932;25.904;2023-04-05T08:58:08;100184.41;;;13.49;56.99
8705;BME280;4389;41.932;25.904;2023-04-05T09:00:37;100186.75;;;13.60;56.50
8705;BME280;4389;41.932;25.904;2023-04-05T09:03:05;100189.66;;;13.90;55.79
8705;BME280;4389;41.932;25.904;2023-04-05T09:05:32;100193.81;;;13.77;55.54
8705;BME280;4389;41.932;25.904;2023-04-05T09:08:02;100194.22;;;14.22;55.15
8705;BME280;4389;41.932;25.904;2023-04-05T09:10:30;100197.03;;;14.20;53.34
8705;BME280;4389;41.932;25.904;2023-04-05T09:12:58;100197.50;;;14.00;53.33
8705;BME280;4389;41.932;25.904;2023-04-05T09:15:28;100194.19;;;14.38;52.99
8705;BME280;4389;41.932;25.904;2023-04-05T09:17:55;100202.97;;;13.98;54.15
8705;BME280;4389;41.932;25.904;2023-04-05T09:20:22;100190.09;;;13.62;55.70
8705;BME280;4389;41.932;25.904;2023-04-05T09:22:49;100200.72;;;13.54;56.55
8705;BME280;4389;41.932;25.904;2023-04-05T09:25:36;100204.81;;;14.06;54.48
8705;BME280;4389;41.932;25.904;2023-04-05T09:28:04;100193.75;;;15.05;52.28
8705;BME280;4389;41.932;25.904;2023-04-05T09:30:32;100199.16;;;15.43;50.31
8705;BME280;4389;41.932;25.904;2023-04-05T09:33:00;100193.28;;;15.48;49.93
8705;BME280;4389;41.932;25.904;2023-04-05T09:35:29;100189.78;;;14.93;51.17
8705;BME280;4389;41.932;25.904;2023-04-05T09:37:57;100191.44;;;14.94;50.79
8705;BME280;4389;41.932;25.904;2023-04-05T09:40:42;100197.84;;;14.69;50.37
8705;BME280;4389;41.932;25.904;2023-04-05T09:43:09;100200.19;;;14.24;51.65
8705;BME280;4389;41.932;25.904;2023-04-05T09:45:40;100189.88;;;14.53;51.10
8705;BME280;4389;41.932;25.904;2023-04-05T09:48:07;100192.13;;;14.88;50.20
8705;BME280;4389;41.932;25.904;2023-04-05T09:50:35;100191.75;;;15.07;49.34
8705;BME280;4389;41.932;25.904;2023-04-05T09:53:07;100189.56;;;15.57;47.49
8705;BME280;4389;41.932;25.904;2023-04-05T09:55:35;100183.28;;;14.95;48.47
8705;BME280;4389;41.932;25.904;2023-04-05T09:58:04;100189.06;;;14.44;51.39
8705;BME280;4389;41.932;25.904;2023-04-05T10:00:31;100191.53;;;14.30;50.40
8705;BME280;4389;41.932;25.904;2023-04-05T10:02:58;100180.91;;;14.30;50.79
8705;BME280;4389;41.932;25.904;2023-04-05T10:05:26;100184.25;;;14.40;51.06
8705;BME280;4389;41.932;25.904;2023-04-05T10:07:54;100183.56;;;14.54;50.45
8705;BME280;4389;41.932;25.904;2023-04-05T10:10:22;100181.81;;;14.85;51.47
8705;BME280;4389;41.932;25.904;2023-04-05T10:12:49;100190.06;;;15.60;49.35
8705;BME280;4389;41.932;25.904;2023-04-05T10:15:18;100188.19;;;15.69;48.44
8705;BME280;4389;41.932;25.904;2023-04-05T10:17:51;100193.03;;;15.27;47.15
8705;BME280;4389;41.932;25.904;2023-04-05T10:20:21;100181.72;;;15.25;47.64
8705;BME280;4389;41.932;25.904;2023-04-05T10:22:57;100188.41;;;15.13;49.52
8705;BME280;4389;41.932;25.904;2023-04-05T10:25:32;100182.88;;;14.44;49.52
8705;BME280;4389;41.932;25.904;2023-04-05T10:28:03;100189.72;;;14.38;51.06
8705;BME280;4389;41.932;25.904;2023-04-05T10:30:34;100180.22;;;14.52;50.73
8705;BME280;4389;41.932;25.904;2023-04-05T10:33:10;100190.00;;;14.75;50.66
8705;BME280;4389;41.932;25.904;2023-04-05T10:35:51;100177.78;;;15.05;49.84
8705;BME280;4389;41.932;25.904;2023-04-05T10:38:24;100181.81;;;14.93;48.22
8705;BME280;4389;41.932;25.904;2023-04-05T10:40:53;100192.44;;;15.01;49.77
8705;BME280;4389;41.932;25.904;2023-04-05T10:43:22;100188.16;;;14.84;52.89
8705;BME280;4389;41.932;25.904;2023-04-05T10:45:53;100192.19;;;14.56;56.94
8705;BME280;4389;41.932;25.904;2023-04-05T10:48:33;100185.44;;;13.56;58.57
8705;BME280;4389;41.932;25.904;2023-04-05T10:51:01;100187.63;;;13.76;62.81
8705;BME280;4389;41.932;25.904;2023-04-05T10:53:29;100183.91;;;13.46;65.17
8705;BME280;4389;41.932;25.904;2023-04-05T10:55:57;100192.03;;;13.03;67.58
8705;BME280;4389;41.932;25.904;2023-04-05T10:58:28;100187.28;;;12.63;70.86
8705;BME280;4389;41.932;25.904;2023-04-05T11:00:56;100177.69;;;12.62;71.30
8705;BME280;4389;41.932;25.904;2023-04-05T11:03:46;100184.88;;;12.52;69.90
8705;BME280;4389;41.932;25.904;2023-04-05T11:06:21;100187.59;;;12.60;70.46
8705;BME280;4389;41.932;25.904;2023-04-05T11:08:52;100190.16;;;12.27;69.61
8705;BME280;4389;41.932;25.904;2023-04-05T11:11:21;100186.06;;;12.32;70.75
8705;BME280;4389;41.932;25.904;2023-04-05T11:13:49;100179.09;;;12.82;69.68
8705;BME280;4389;41.932;25.904;2023-04-05T11:16:18;100185.16;;;12.92;69.56
8705;BME280;4389;41.932;25.904;2023-04-05T11:18:46;100187.13;;;12.90;67.82
8705;BME280;4389;41.932;25.904;2023-04-05T11:21:21;100183.69;;;12.72;69.75
8705;BME280;4389;41.932;25.904;2023-04-05T11:24:02;100187.00;;;12.74;68.24
8705;BME280;4389;41.932;25.904;2023-04-05T11:26:32;100189.53;;;13.01;68.68
8705;BME280;4389;41.932;25.904;2023-04-05T11:29:00;100196.72;;;13.09;68.80
8705;BME280;4389;41.932;25.904;2023-04-05T11:31:28;100193.59;;;13.13;69.19
8705;BME280;4389;41.932;25.904;2023-04-05T11:33:58;100195.56;;;13.11;70.11
8705;BME280;4389;41.932;25.904;2023-04-05T11:36:38;100189.59;;;12.92;69.88
8705;BME280;4389;41.932;25.904;2023-04-05T11:39:23;100191.22;;;12.59;72.72
8705;BME280;4389;41.932;25.904;2023-04-05T11:41:53;100199.00;;;12.10;72.87
8705;BME280;4389;41.932;25.904;2023-04-05T11:44:21;100208.81;;;12.17;73.74
8705;BME280;4389;41.932;25.904;2023-04-05T11:46:50;100197.44;;;12.42;73.81
8705;BME280;4389;41.932;25.904;2023-04-05T11:49:18;100196.78;;;12.23;75.27
8705;BME280;4389;41.932;25.904;2023-04-05T11:51:47;100196.94;;;12.21;74.17
8705;BME280;4389;41.932;25.904;2023-04-05T11:54:27;100190.84;;;12.29;73.79
8705;BME280;4389;41.932;25.904;2023-04-05T11:56:54;100196.31;;;12.27;74.78
8705;BME280;4389;41.932;25.904;2023-04-05T11:59:27;100198.38;;;11.98;77.85
8705;BME280;4389;41.932;25.904;2023-04-05T12:01:58;100196.41;;;11.56;76.39
8705;BME280;4389;41.932;25.904;2023-04-05T12:04:25;100201.88;;;11.27;78.81
8705;BME280;4389;41.932;25.904;2023-04-05T12:07:07;100200.25;;;11.17;80.87
8705;BME280;4389;41.932;25.904;2023-04-05T12:09:34;100198.34;;;11.09;80.89
8705;BME280;4389;41.932;25.904;2023-04-05T12:12:01;100196.97;;;11.05;79.68
8705;BME280;4389;41.932;25.904;2023-04-05T12:14:28;100195.25;;;11.14;82.51
8705;BME280;4389;41.932;25.904;2023-04-05T12:16:55;100198.44;;;11.17;82.13
8705;BME280;4389;41.932;25.904;2023-04-05T12:19:28;100193.84;;;11.19;82.00
8705;BME280;4389;41.932;25.904;2023-04-05T12:21:56;100202.75;;;11.18;84.24
8705;BME280;4389;41.932;25.904;2023-04-05T12:24:23;100197.66;;;11.07;84.18
8705;BME280;4389;41.932;25.904;2023-04-05T12:26:50;100201.75;;;10.92;83.80
8705;BME280;4389;41.932;25.904;2023-04-05T12:29:17;100196.81;;;11.07;83.66
8705;BME280;4389;41.932;25.904;2023-04-05T12:31:45;100192.63;;;10.77;86.12
8705;BME280;4389;41.932;25.904;2023-04-05T12:34:13;100196.25;;;10.76;86.06
8705;BME280;4389;41.932;25.904;2023-04-05T12:36:44;100198.50;;;10.71;86.14
8705;BME280;4389;41.932;25.904;2023-04-05T12:39:15;100198.50;;;10.71;83.97
8705;BME280;4389;41.932;25.904;2023-04-05T12:41:42;100192.19;;;10.82;84.22
8705;BME280;4389;41.932;25.904;2023-04-05T12:44:11;100196.06;;;10.87;81.89
8705;BME280;4389;41.932;25.904;2023-04-05T12:46:41;100199.69;;;10.86;79.34
8705;BME280;4389;41.932;25.904;2023-04-05T12:49:12;100199.78;;;10.94;79.05
8705;BME280;4389;41.932;25.904;2023-04-05T12:51:41;100200.44;;;11.06;80.26
8705;BME280;4389;41.932;25.904;2023-04-05T12:54:12;100202.69;;;10.64;78.35
8705;BME280;4389;41.932;25.904;2023-04-05T12:56:39;100197.09;;;10.67;79.62
8705;BME280;4389;41.932;25.904;2023-04-05T12:59:06;100197.25;;;10.66;80.43
8705;BME280;4389;41.932;25.904;2023-04-05T13:01:34;100197.97;;;10.58;80.50
8705;BME280;4389;41.932;25.904;2023-04-05T13:04:01;100200.00;;;11.10;81.28
8705;BME280;4389;41.932;25.904;2023-04-05T13:06:29;100202.06;;;11.16;79.23
8705;BME280;4389;41.932;25.904;2023-04-05T13:08:57;100202.06;;;11.16;76.96
8705;BME280;4389;41.932;25.904;2023-04-05T13:11:25;100198.81;;;10.95;77.23
8705;BME280;4389;41.932;25.904;2023-04-05T13:13:52;100203.13;;;10.96;78.64
8705;BME280;4389;41.932;25.904;2023-04-05T13:16:19;100190.00;;;11.04;78.53